createdAt,value
2018-11-05T00:00:00.068Z,1012
2018-11-05T00:04:59.697Z,1012
2018-11-05T00:10:00.254Z,1011.9
2018-11-05T00:14:59.708Z,1011.8
2018-11-05T00:19:59.511Z,1011.6
2018-11-05T00:24:59.415Z,1011.7
2018-11-05T00:29:59.938Z,1011.7
2018-11-05T00:34:59.805Z,1011.5
2018-11-05T00:39:59.220Z,1011.4
2018-11-05T00:44:59.571Z,1011.5
2018-11-05T00:49:59.543Z,1011.5
2018-11-05T00:54:59.381Z,1011.5
2018-11-05T00:59:59.882Z,1011.4
2018-11-05T01:05:00.295Z,1011.3
2018-11-05T01:10:00.284Z,1011.3
2018-11-05T01:15:03.282Z,1011.3
2018-11-05T01:19:59.465Z,1011.3
2018-11-05T01:24:59.521Z,1011.2
2018-11-05T01:30:00.808Z,1011.2
2018-11-05T01:34:59.451Z,1011.2
2018-11-05T01:39:59.338Z,1011.2
2018-11-05T01:44:59.863Z,1011.4
2018-11-05T01:49:59.675Z,1011.4
2018-11-05T01:55:00.539Z,1011.3
2018-11-05T02:00:05.755Z,1011.2
2018-11-05T02:04:59.223Z,1011.2
2018-11-05T02:10:02.021Z,1011
2018-11-05T02:15:01.538Z,1010.9
2018-11-05T02:19:59.634Z,1010.8
2018-11-05T02:24:59.406Z,1010.8
2018-11-05T02:30:01.656Z,1010.9
2018-11-05T02:34:59.606Z,1010.7
2018-11-05T02:39:59.239Z,1010.7
2018-11-05T02:45:00.376Z,1010.8
2018-11-05T02:49:59.271Z,1010.7
2018-11-05T02:54:59.120Z,1010.7
2018-11-05T03:00:01.857Z,1010.7
2018-11-05T03:04:59.938Z,1010.7
2018-11-05T03:09:59.603Z,1010.7
2018-11-05T03:15:01.861Z,1010.7
2018-11-05T03:20:02.373Z,1010.7
2018-11-05T03:24:59.080Z,1010.7
2018-11-05T03:30:03.241Z,1010.7
2018-11-05T03:35:00.352Z,1010.7
2018-11-05T03:40:01.220Z,1010.7
2018-11-05T03:45:02.596Z,1010.5
2018-11-05T03:50:00.769Z,1010.4
2018-11-05T03:54:59.980Z,1010.3
2018-11-05T04:00:01.972Z,1010.3
2018-11-05T04:04:59.032Z,1010.2
2018-11-05T04:09:59.460Z,1010.2
2018-11-05T04:15:00.765Z,1010.2
2018-11-05T04:19:58.977Z,1010.2
2018-11-05T04:24:59.226Z,1010.2
2018-11-05T04:30:00.854Z,1010.3
2018-11-05T04:34:59.153Z,1010.2
2018-11-05T04:39:59.551Z,1010.2
2018-11-05T04:44:59.164Z,1010.2
2018-11-05T04:49:59.112Z,1010.2
2018-11-05T04:54:59.570Z,1010.1
2018-11-05T05:00:00.008Z,1010.1
2018-11-05T05:04:59.305Z,1010.1
2018-11-05T05:09:59.875Z,1010.1
2018-11-05T05:14:59.774Z,1010.1
2018-11-05T05:19:59.845Z,1010.2
2018-11-05T05:24:59.988Z,1010.2
2018-11-05T05:29:58.689Z,1010.1
2018-11-05T05:34:58.765Z,1010.2
2018-11-05T05:39:59.205Z,1010.2
2018-11-05T05:44:59.303Z,1010.2
2018-11-05T05:49:59.985Z,1010.2
2018-11-05T05:54:59.265Z,1010.2
2018-11-05T05:59:59.623Z,1010.2
2018-11-05T06:04:58.826Z,1010.1
2018-11-05T06:09:59.733Z,1010.1
2018-11-05T06:14:58.844Z,1010.1
2018-11-05T06:19:59.834Z,1010.2
2018-11-05T06:24:58.879Z,1010.1
2018-11-05T06:29:59.844Z,1010.1
2018-11-05T06:34:59.149Z,1010
2018-11-05T06:39:58.701Z,1009.9
2018-11-05T06:44:59.263Z,1009.8
2018-11-05T06:49:58.894Z,1009.7
2018-11-05T06:54:58.780Z,1009.8
2018-11-05T07:00:00.942Z,1009.8
2018-11-05T07:05:00.029Z,1009.9
2018-11-05T07:09:59.123Z,1009.8
2018-11-05T07:15:05.539Z,1009.7
2018-11-05T07:19:59.417Z,1009.9
2018-11-05T07:24:58.896Z,1009.9
2018-11-05T07:30:00.199Z,1009.9
2018-11-05T07:34:59.050Z,1009.9
2018-11-05T07:39:59.432Z,1009.9
2018-11-05T07:45:00.818Z,1010
2018-11-05T07:50:00.767Z,1010.2
2018-11-05T07:54:59.611Z,1010.3
2018-11-05T08:00:06.579Z,1010.3
2018-11-05T08:05:00.609Z,1010.4
2018-11-05T08:09:59.106Z,1010.5
2018-11-05T08:15:01.775Z,1010.5
2018-11-05T08:19:59.197Z,1010.5
2018-11-05T08:24:59.425Z,1010.3
2018-11-05T08:29:59.854Z,1010.4
2018-11-05T08:34:58.708Z,1010.2
2018-11-05T08:39:59.060Z,1010.3
2018-11-05T08:44:59.166Z,1010.4
2018-11-05T08:49:59.026Z,1010.3
2018-11-05T08:54:59.268Z,1010.3
2018-11-05T08:59:59.283Z,1010.3
2018-11-05T09:04:59.476Z,1010.3
2018-11-05T09:09:58.744Z,1010.1
2018-11-05T09:14:58.914Z,1010
2018-11-05T09:19:58.853Z,1010
2018-11-05T09:24:58.770Z,1009.9
2018-11-05T09:29:59.686Z,1009.8
2018-11-05T09:34:58.393Z,1009.8
2018-11-05T09:39:58.569Z,1009.9
2018-11-05T09:44:58.348Z,1010
2018-11-05T09:49:58.311Z,1010
2018-11-05T09:54:59.107Z,1009.9
2018-11-05T09:59:58.958Z,1009.8
2018-11-05T10:04:58.606Z,1009.6
2018-11-05T10:09:58.896Z,1009.5
2018-11-05T10:14:58.797Z,1009.6
2018-11-05T10:19:58.939Z,1009.6
2018-11-05T10:24:58.696Z,1009.6
2018-11-05T10:29:58.476Z,1009.5
2018-11-05T10:34:58.155Z,1009.5
2018-11-05T10:39:58.585Z,1009.5
2018-11-05T10:44:58.573Z,1009.4
2018-11-05T10:49:58.309Z,1009.4
2018-11-05T10:54:59.264Z,1009.3
2018-11-05T11:05:13.732Z,1009.2
2018-11-05T11:10:04.565Z,1009.1
2018-11-05T11:15:04.308Z,1009
2018-11-05T11:20:04.304Z,1008.8
2018-11-05T11:25:04.250Z,1008.7
2018-11-05T11:30:04.211Z,1008.7
2018-11-05T11:35:04.394Z,1008.5
2018-11-05T11:40:04.650Z,1008.5
2018-11-05T11:45:04.306Z,1008.5
2018-11-05T11:50:04.453Z,1008.5
2018-11-05T11:55:04.712Z,1008.6
2018-11-05T12:00:04.459Z,1008.6
2018-11-05T12:05:04.369Z,1008.5
2018-11-05T12:10:04.255Z,1008.5
2018-11-05T12:15:04.739Z,1008.6
2018-11-05T12:20:04.210Z,1008.4
2018-11-05T12:25:04.353Z,1008.3
2018-11-05T12:30:04.483Z,1008.3
2018-11-05T12:35:04.687Z,1008.2
2018-11-05T12:40:04.481Z,1008
2018-11-05T12:45:04.364Z,1008
2018-11-05T12:50:04.415Z,1007.9
2018-11-05T12:55:04.436Z,1007.9
2018-11-05T13:00:04.720Z,1008
2018-11-05T13:05:04.443Z,1008.1
2018-11-05T13:10:04.332Z,1008.1
2018-11-05T13:15:04.140Z,1008.1
2018-11-05T13:20:04.077Z,1008
2018-11-05T13:25:04.355Z,1008
2018-11-05T13:30:04.251Z,1007.9
2018-11-05T13:35:04.479Z,1007.9
2018-11-05T13:40:04.135Z,1007.9
2018-11-05T13:45:04.355Z,1008
2018-11-05T13:50:04.515Z,1008.2
2018-11-05T13:55:04.850Z,1008.1
2018-11-05T14:00:04.641Z,1008.2
2018-11-05T14:05:04.564Z,1008.1
2018-11-05T14:10:04.179Z,1008
2018-11-05T14:15:04.601Z,1008
2018-11-05T14:20:04.528Z,1007.9
2018-11-05T14:25:04.443Z,1008
2018-11-05T14:30:04.310Z,1007.9
2018-11-05T14:35:04.196Z,1007.8
2018-11-05T14:40:04.054Z,1007.9
2018-11-05T14:45:03.969Z,1007.8
2018-11-05T14:50:04.210Z,1007.8
2018-11-05T14:55:03.993Z,1007.7
2018-11-05T15:00:04.090Z,1007.6
2018-11-05T15:05:03.971Z,1007.7
2018-11-05T15:10:04.047Z,1007.6
2018-11-05T15:15:04.140Z,1007.6
2018-11-05T15:20:04.721Z,1007.5
2018-11-05T15:25:04.329Z,1007.5
2018-11-05T15:30:04.051Z,1007.6
2018-11-05T15:35:04.439Z,1007.5
2018-11-05T15:40:04.399Z,1007.5
2018-11-05T15:45:04.016Z,1007.5
2018-11-05T15:50:04.565Z,1007.4
2018-11-05T15:55:04.486Z,1007.4
2018-11-05T16:00:04.038Z,1007.4
2018-11-05T16:05:04.930Z,1007.3
2018-11-05T16:10:04.130Z,1007.4
2018-11-05T16:15:04.046Z,1007.3
2018-11-05T16:20:04.383Z,1007.3
2018-11-05T16:25:04.582Z,1007.2
2018-11-05T16:30:03.873Z,1007.2
2018-11-05T16:35:04.555Z,1007.3
2018-11-05T16:40:04.556Z,1007.2
2018-11-05T16:45:04.120Z,1007.1
2018-11-05T16:50:04.618Z,1007.2
2018-11-05T16:55:04.318Z,1007.2
2018-11-05T17:00:06.924Z,1007.3
2018-11-05T17:05:05.098Z,1007.2
2018-11-05T17:10:04.879Z,1007.3
2018-11-05T17:15:04.277Z,1007.4
2018-11-05T17:20:04.355Z,1007.5
2018-11-05T17:25:04.646Z,1007.4
2018-11-05T17:30:04.327Z,1007.3
2018-11-05T18:55:07.443Z,1007.2
2018-11-05T19:00:04.333Z,1007.2
2018-11-05T19:05:03.961Z,1007.1
2018-11-05T19:10:04.141Z,1007.1
2018-11-05T19:15:04.339Z,1007
2018-11-05T19:20:03.938Z,1007.1
2018-11-05T19:25:03.934Z,1007.1
2018-11-05T19:30:04.061Z,1007
2018-11-05T19:35:04.677Z,1007.1
2018-11-05T19:40:04.131Z,1007
2018-11-05T19:45:04.192Z,1006.9
2018-11-05T19:50:04.170Z,1007
2018-11-05T19:55:05.505Z,1007.1
2018-11-05T20:00:04.878Z,1007.1
2018-11-05T20:05:04.633Z,1006.9
2018-11-05T20:10:08.080Z,1006.9
2018-11-05T20:15:04.155Z,1007
2018-11-05T20:20:04.398Z,1006.9
2018-11-05T20:25:04.671Z,1006.9
2018-11-05T20:30:07.274Z,1007
2018-11-05T20:45:06.157Z,1006.9
2018-11-05T20:50:04.237Z,1007
2018-11-05T20:55:04.594Z,1006.9
2018-11-05T21:00:04.455Z,1006.9
2018-11-05T21:05:04.285Z,1006.9
2018-11-05T21:10:04.648Z,1006.8
2018-11-05T21:15:04.560Z,1006.8
2018-11-05T21:20:04.500Z,1006.8
2018-11-05T21:25:04.212Z,1006.8
2018-11-05T21:30:04.391Z,1006.8
2018-11-05T21:35:04.545Z,1006.7
2018-11-05T21:40:04.258Z,1006.6
2018-11-05T21:45:04.544Z,1006.6
2018-11-05T21:50:04.673Z,1006.6
2018-11-05T21:55:04.200Z,1006.6
2018-11-05T22:00:04.629Z,1006.6
2018-11-05T22:05:04.376Z,1006.5
2018-11-05T22:10:04.351Z,1006.6
2018-11-05T22:15:04.293Z,1006.6
2018-11-05T22:20:04.314Z,1006.6
2018-11-05T22:25:04.522Z,1006.5
2018-11-05T22:30:04.025Z,1006.6
2018-11-05T22:35:04.386Z,1006.5
2018-11-05T22:40:04.832Z,1006.4
2018-11-05T22:45:04.433Z,1006.4
2018-11-05T22:50:04.420Z,1006.4
2018-11-05T22:55:04.468Z,1006.4
2018-11-05T23:00:04.206Z,1006.4
2018-11-05T23:05:04.403Z,1006.5
2018-11-05T23:10:04.120Z,1006.5
2018-11-05T23:15:04.348Z,1006.5
2018-11-05T23:20:04.322Z,1006.6
2018-11-05T23:25:04.269Z,1006.5
2018-11-05T23:30:04.121Z,1006.4
2018-11-05T23:35:04.099Z,1006.4
2018-11-05T23:40:04.391Z,1006.6
2018-11-05T23:45:04.236Z,1006.6
2018-11-05T23:50:04.328Z,1006.6
2018-11-05T23:55:04.156Z,1006.6
